createdAt,value
2022-10-20T00:03:17.938Z,12.65
2022-10-20T00:10:03.306Z,11.90
2022-10-20T00:16:51.352Z,11.85
2022-10-20T00:23:36.752Z,12.18
2022-10-20T00:30:23.776Z,12.05
2022-10-20T00:37:13.668Z,13.38
2022-10-20T00:44:02.030Z,11.77
2022-10-20T00:50:53.305Z,12.38
2022-10-20T00:57:42.097Z,12.05
2022-10-20T01:04:28.984Z,12.00
2022-10-20T01:11:24.437Z,13.75
2022-10-20T01:18:19.479Z,12.43
2022-10-20T01:25:20.330Z,11.93
2022-10-20T01:32:19.463Z,12.10
2022-10-20T01:39:09.439Z,11.73
2022-10-20T01:45:57.640Z,11.40
2022-10-20T01:52:45.651Z,11.93
2022-10-20T01:59:47.384Z,12.02
2022-10-20T02:06:46.165Z,12.80
2022-10-20T02:13:34.928Z,11.95
2022-10-20T02:20:20.814Z,11.48
2022-10-20T02:27:12.065Z,11.07
2022-10-20T02:34:01.197Z,11.38
2022-10-20T02:40:46.768Z,11.35
2022-10-20T03:01:24.918Z,11.40
2022-10-20T03:08:10.491Z,11.88
2022-10-20T03:14:55.979Z,11.10
2022-10-20T03:21:44.302Z,11.05
2022-10-20T03:28:30.425Z,12.00
2022-10-20T03:35:15.825Z,11.53
2022-10-20T03:42:03.802Z,10.65
2022-10-20T03:48:49.147Z,12.23
2022-10-20T03:55:34.545Z,12.10
2022-10-20T04:02:35.448Z,12.48
2022-10-20T04:09:21.094Z,13.93
2022-10-20T04:16:06.604Z,12.65
2022-10-20T04:22:54.673Z,11.38
2022-10-20T04:29:40.409Z,12.43
2022-10-20T04:36:25.782Z,11.65
2022-10-20T04:43:13.709Z,13.68
2022-10-20T04:49:59.058Z,12.40
2022-10-20T04:56:44.475Z,13.15
2022-10-20T05:03:32.453Z,12.85
2022-10-20T05:10:19.369Z,13.35
2022-10-20T05:17:07.810Z,12.88
2022-10-20T05:24:02.564Z,14.00
2022-10-20T05:30:47.976Z,13.50
2022-10-20T05:37:33.335Z,13.90
2022-10-20T05:44:21.318Z,13.60
2022-10-20T05:51:15.461Z,13.55
2022-10-20T05:58:00.977Z,13.77
2022-10-20T06:04:48.934Z,14.73
2022-10-20T06:11:38.371Z,14.15
2022-10-20T06:18:24.841Z,14.05
2022-10-20T06:25:13.382Z,16.08
2022-10-20T06:31:59.243Z,14.63
2022-10-20T06:38:45.551Z,15.10
2022-10-20T06:45:33.513Z,15.80
2022-10-20T06:52:18.901Z,16.23
2022-10-20T06:59:05.178Z,16.25
2022-10-20T07:05:53.845Z,15.68
2022-10-20T07:12:39.515Z,16.77
2022-10-20T07:19:25.449Z,16.27
2022-10-20T07:26:16.906Z,17.50
2022-10-20T07:33:02.236Z,17.63
2022-10-20T07:39:47.585Z,16.45
2022-10-20T07:46:36.515Z,15.73
2022-10-20T07:53:21.988Z,15.02
2022-10-20T08:00:09.447Z,14.50
2022-10-20T08:07:00.507Z,14.70
2022-10-20T08:13:48.852Z,14.30
2022-10-20T08:20:34.564Z,14.65
2022-10-20T08:27:22.574Z,15.03
2022-10-20T08:34:09.132Z,14.68
2022-10-20T08:40:54.517Z,15.55
2022-10-20T08:47:43.410Z,15.05
2022-10-20T08:54:28.962Z,15.77
2022-10-20T09:01:23.048Z,15.25
2022-10-20T09:08:11.155Z,14.48
2022-10-20T09:14:57.471Z,13.57
2022-10-20T09:21:44.266Z,13.65
2022-10-20T09:28:42.932Z,14.27
2022-10-20T09:35:37.489Z,14.57
2022-10-20T09:42:26.081Z,13.88
2022-10-20T09:49:28.240Z,13.75
2022-10-20T09:56:13.749Z,13.35
2022-10-20T10:03:25.122Z,13.07
2022-10-20T10:10:30.987Z,13.23
2022-10-20T10:17:32.239Z,14.40
2022-10-20T10:24:46.489Z,13.63
2022-10-20T10:31:36.644Z,12.82
2022-10-20T10:38:22.235Z,13.75
2022-10-20T10:45:21.165Z,13.57
2022-10-20T10:52:26.099Z,12.95
2022-10-20T10:59:17.576Z,13.50
2022-10-20T11:06:18.492Z,12.35
2022-10-20T11:13:26.149Z,12.35
2022-10-20T11:20:31.208Z,11.65
2022-10-20T11:27:21.303Z,12.82
2022-10-20T11:34:17.181Z,13.55
2022-10-20T11:41:08.697Z,12.55
2022-10-20T11:48:01.965Z,12.50
2022-10-20T11:55:37.786Z,12.00
2022-10-20T12:03:14.197Z,12.45
2022-10-20T12:10:28.318Z,15.00
2022-10-20T12:17:30.758Z,15.68
2022-10-20T12:24:36.451Z,12.68
2022-10-20T12:31:25.729Z,12.33
2022-10-20T12:38:21.875Z,12.65
2022-10-20T12:45:11.124Z,13.73
2022-10-20T12:52:01.106Z,13.38
2022-10-20T12:59:24.043Z,13.60
2022-10-20T13:06:45.273Z,13.40
2022-10-20T13:14:04.194Z,13.65
2022-10-20T13:20:55.405Z,13.55
2022-10-20T13:27:40.859Z,13.40
2022-10-20T13:34:33.902Z,13.70
2022-10-20T13:41:29.859Z,13.75
2022-10-20T13:48:35.678Z,13.43
2022-10-20T13:55:28.390Z,13.97
2022-10-20T14:02:28.709Z,13.70
2022-10-20T14:09:19.234Z,12.80
2022-10-20T14:16:12.146Z,13.00
2022-10-20T14:22:59.096Z,12.82
2022-10-20T14:29:44.669Z,19.67
2022-10-20T14:36:33.878Z,14.80
2022-10-20T14:43:22.713Z,13.55
2022-10-20T14:50:10.405Z,13.88
2022-10-20T14:57:00.882Z,13.90
2022-10-20T15:03:46.786Z,13.93
2022-10-20T15:10:34.434Z,14.18
2022-10-20T15:17:43.201Z,15.23
2022-10-20T15:24:28.684Z,15.15
2022-10-20T15:31:23.984Z,14.90
2022-10-20T15:38:12.718Z,17.45
2022-10-20T15:44:58.064Z,17.05
2022-10-20T15:51:46.493Z,14.50
2022-10-20T15:58:38.858Z,16.50
2022-10-20T16:05:28.107Z,16.98
2022-10-20T16:12:14.402Z,16.23
2022-10-20T16:25:47.858Z,15.65
2022-10-20T16:32:35.312Z,16.33
2022-10-20T16:39:23.553Z,17.67
2022-10-20T16:46:10.625Z,16.08
2022-10-20T16:52:55.994Z,16.73
2022-10-20T16:59:49.733Z,18.63
2022-10-20T17:06:35.205Z,16.38
2022-10-20T17:13:20.620Z,15.67
2022-10-20T17:20:10.444Z,16.33
2022-10-20T17:26:55.809Z,16.42
2022-10-20T17:33:42.356Z,17.13
2022-10-20T17:40:30.367Z,16.38
2022-10-20T17:47:15.793Z,17.83
2022-10-20T17:54:01.176Z,17.03
2022-10-20T18:00:56.604Z,22.15
2022-10-20T18:07:42.456Z,17.25
2022-10-20T18:14:27.802Z,16.73
2022-10-20T18:21:18.668Z,15.50
2022-10-20T18:28:04.877Z,17.05
2022-10-20T18:34:50.505Z,15.45
2022-10-20T18:41:41.317Z,16.07
2022-10-20T18:48:26.736Z,16.38
2022-10-20T18:55:13.025Z,17.37
2022-10-20T19:08:52.792Z,18.17
2022-10-20T19:15:42.778Z,17.33
2022-10-20T19:22:30.830Z,18.50
2022-10-20T19:29:19.742Z,17.60
2022-10-20T19:36:05.203Z,18.55
2022-10-20T19:42:53.312Z,18.53
2022-10-20T19:49:38.906Z,18.08
2022-10-20T19:56:24.248Z,18.70
2022-10-20T20:03:12.272Z,17.40
2022-10-20T20:09:57.645Z,17.83
2022-10-20T20:23:59.734Z,16.20
2022-10-20T20:30:46.249Z,17.33
2022-10-20T20:37:31.604Z,17.25
2022-10-20T20:44:20.035Z,16.00
2022-10-20T20:51:07.625Z,17.88
2022-10-20T20:57:52.993Z,18.08
2022-10-20T21:04:41.170Z,18.57
2022-10-20T21:11:28.936Z,20.13
2022-10-20T21:18:14.722Z,19.80
2022-10-20T21:25:02.673Z,20.10
2022-10-20T21:31:48.052Z,21.35
2022-10-20T21:38:34.316Z,20.27
2022-10-20T21:45:22.335Z,21.23
2022-10-20T21:52:08.239Z,20.98
2022-10-20T21:58:53.915Z,20.00
2022-10-20T22:05:42.306Z,19.97
2022-10-20T22:12:27.709Z,18.50
2022-10-20T22:19:17.698Z,18.90
2022-10-20T22:26:06.286Z,19.08
2022-10-20T22:32:51.693Z,19.58
2022-10-20T22:39:37.064Z,19.40
2022-10-20T22:46:25.042Z,18.45
2022-10-20T22:53:10.810Z,16.85
2022-10-20T22:59:56.216Z,17.05
2022-10-20T23:06:44.209Z,15.87
2022-10-20T23:13:29.599Z,16.55
2022-10-20T23:20:15.353Z,15.43
2022-10-20T23:27:03.311Z,15.50
2022-10-20T23:33:50.461Z,17.20
2022-10-20T23:40:35.814Z,16.52
2022-10-20T23:47:23.784Z,18.08
2022-10-20T23:54:09.162Z,17.30
